Portada
METAR-TAF:

METAR-TAF

Aeroports :

Phrae, Tailàndia

latitud: 18-10N, longitud: 100-10E, altitud: 161 m

Observació

L'informe es va fer fa 25 minuts, a les 01:00 UTC
Vent 1 kt amb direcció variable
Temperatura 26°C
Humitat 58%
Pressió 1010 hPa
Visibilitat: 2500 m
calitja

METAR: VTCP 300100Z VRB01KT 2500 HZ NSC 26/17 Q1010 BECMG 3000 HZ

Hora: 08:25 (01:25 UTC)

Pronòstic

L'informe es va fer fa 2 hores i 25 minuts, a les 23:00 UTC
Pronòstic vàlid del 30 a les 00 UTC al 30 a les 24 UTC
Vent 5 kt del Sud-Oest
Visibilitat: 3000 m
calitja

TAF: VTCP 292300Z 3000/3024 22005KT 3000 HZ NSC

Observacions i pronòstics meteorològics de més de 4000 aeroports (METAR i TAF).

Les estacions disponibles són els punts grocs i vermells al mapa.

Posi el ratolí al punt desitjat per veure el nom de l'estació.

Feu clic per veure les observacions i els pronòstics meteorològics.

Per canviar el mapa: feu clic els botons verds amb una creu de color negre per apropar; al botó verd amb un guió per allunyar la imatge; o en les fletxes verdes per a mapes adjacents.


METAR-TAF: